Time;durP1;ratioP1;P1;durP2;ratioP2;P2;SDS_P1;SDS_P2;PMS_P1;PMS_P2;Temp;Humidity;BMP_temperature;BMP_pressure;BME280_temperature;BME280_humidity;BME280_pressure;Samples;Min_cycle;Max_cycle;Signal;HPM_P1;HPM_P2
2021/02/21 00:00:11;;;;;;;4.4;2.2;;;;;;;;;;;;;
2021/02/21 00:02:38;;;;;;;3.6;2;;;;;;;;;;;;;
2021/02/21 00:05:03;;;;;;;1.6;1.2;;;;;;;;;;;;;
2021/02/21 00:07:29;;;;;;;4.5;1.9;;;;;;;;;;;;;
2021/02/21 00:09:54;;;;;;;2.9;1.9;;;;;;;;;;;;;
2021/02/21 00:12:20;;;;;;;2.8;2;;;;;;;;;;;;;
2021/02/21 00:14:46;;;;;;;4;1.4;;;;;;;;;;;;;
2021/02/21 00:17:14;;;;;;;3.9;2;;;;;;;;;;;;;
2021/02/21 00:19:42;;;;;;;5.2;2.4;;;;;;;;;;;;;
2021/02/21 00:22:09;;;;;;;3.8;2.2;;;;;;;;;;;;;
2021/02/21 00:24:36;;;;;;;5.7;2.4;;;;;;;;;;;;;
2021/02/21 00:27:02;;;;;;;3.3;1.9;;;;;;;;;;;;;
2021/02/21 00:29:36;;;;;;;2.4;1.3;;;;;;;;;;;;;
2021/02/21 00:32:06;;;;;;;8;1.8;;;;;;;;;;;;;
2021/02/21 00:34:36;;;;;;;3.9;1.8;;;;;;;;;;;;;
2021/02/21 00:37:05;;;;;;;6.3;1.4;;;;;;;;;;;;;
2021/02/21 00:39:30;;;;;;;1.7;1.6;;;;;;;;;;;;;
2021/02/21 00:42:00;;;;;;;2.3;1.5;;;;;;;;;;;;;
2021/02/21 00:44:30;;;;;;;2.2;1.5;;;;;;;;;;;;;
2021/02/21 00:47:01;;;;;;;3.3;1.7;;;;;;;;;;;;;
2021/02/21 00:49:32;;;;;;;2.8;1.9;;;;;;;;;;;;;
2021/02/21 00:51:56;;;;;;;6.2;1.8;;;;;;;;;;;;;
2021/02/21 00:54:23;;;;;;;11.8;5.7;;;;;;;;;;;;;
2021/02/21 00:56:48;;;;;;;13.2;6.6;;;;;;;;;;;;;
2021/02/21 00:59:16;;;;;;;14.8;6.2;;;;;;;;;;;;;
2021/02/21 01:01:41;;;;;;;5.5;3.7;;;;;;;;;;;;;
2021/02/21 01:04:08;;;;;;;5.4;2.2;;;;;;;;;;;;;
2021/02/21 01:06:33;;;;;;;3.4;2.2;;;;;;;;;;;;;
2021/02/21 01:09:00;;;;;;;3.5;2.6;;;;;;;;;;;;;
2021/02/21 01:11:25;;;;;;;11.5;5.3;;;;;;;;;;;;;
2021/02/21 01:13:52;;;;;;;5.5;3.3;;;;;;;;;;;;;
2021/02/21 01:16:20;;;;;;;3.6;2;;;;;;;;;;;;;
2021/02/21 01:18:47;;;;;;;4;1.5;;;;;;;;;;;;;
2021/02/21 01:21:12;;;;;;;3.6;1.8;;;;;;;;;;;;;
2021/02/21 01:23:38;;;;;;;2.5;1.7;;;;;;;;;;;;;
2021/02/21 01:26:03;;;;;;;2.9;1.6;;;;;;;;;;;;;
2021/02/21 01:28:28;;;;;;;2.5;1.6;;;;;;;;;;;;;
2021/02/21 01:30:54;;;;;;;4.4;2;;;;;;;;;;;;;
2021/02/21 01:33:20;;;;;;;3.4;1.9;;;;;;;;;;;;;
2021/02/21 01:35:45;;;;;;;13.8;7.2;;;;;;;;;;;;;
2021/02/21 01:38:11;;;;;;;16.6;7.1;;;;;;;;;;;;;
2021/02/21 01:40:37;;;;;;;8.5;5.1;;;;;;;;;;;;;
2021/02/21 01:43:03;;;;;;;5.8;3.1;;;;;;;;;;;;;
2021/02/21 01:45:28;;;;;;;8;4;;;;;;;;;;;;;
2021/02/21 01:47:56;;;;;;;6.5;3.5;;;;;;;;;;;;;
2021/02/21 01:50:25;;;;;;;5.9;3.2;;;;;;;;;;;;;
2021/02/21 01:52:50;;;;;;;3.4;2;;;;;;;;;;;;;
2021/02/21 01:55:16;;;;;;;1.8;1.4;;;;;;;;;;;;;
2021/02/21 01:57:41;;;;;;;3.2;1.4;;;;;;;;;;;;;
2021/02/21 02:00:11;;;;;;;1.6;1.3;;;;;;;;;;;;;
2021/02/21 02:02:37;;;;;;;2.4;1.6;;;;;;;;;;;;;
2021/02/21 02:05:02;;;;;;;3.2;1.2;;;;;;;;;;;;;
2021/02/21 02:07:27;;;;;;;6;2.7;;;;;;;;;;;;;
2021/02/21 02:09:52;;;;;;;3;2;;;;;;;;;;;;;
2021/02/21 02:12:19;;;;;;;5;2.2;;;;;;;;;;;;;
2021/02/21 02:14:49;;;;;;;3.6;1.7;;;;;;;;;;;;;
2021/02/21 02:17:18;;;;;;;4.4;1.5;;;;;;;;;;;;;
2021/02/21 02:19:43;;;;;;;3.9;1.6;;;;;;;;;;;;;
2021/02/21 02:22:08;;;;;;;1;0.9;;;;;;;;;;;;;
2021/02/21 02:24:38;;;;;;;1.9;1.1;;;;;;;;;;;;;
2021/02/21 02:27:07;;;;;;;1.9;1.2;;;;;;;;;;;;;
2021/02/21 02:29:32;;;;;;;2.9;0.8;;;;;;;;;;;;;
2021/02/21 02:32:00;;;;;;;3.8;1.4;;;;;;;;;;;;;
2021/02/21 02:34:25;;;;;;;1.5;1.1;;;;;;;;;;;;;
2021/02/21 02:36:57;;;;;;;1.8;1;;;;;;;;;;;;;
2021/02/21 02:39:26;;;;;;;1.2;1;;;;;;;;;;;;;
2021/02/21 02:41:58;;;;;;;1.6;1;;;;;;;;;;;;;
2021/02/21 02:44:25;;;;;;;0.8;0.8;;;;;;;;;;;;;
2021/02/21 02:46:50;;;;;;;1;0.7;;;;;;;;;;;;;
2021/02/21 02:49:19;;;;;;;2.3;1.3;;;;;;;;;;;;;
2021/02/21 02:51:50;;;;;;;1.2;0.9;;;;;;;;;;;;;
2021/02/21 02:54:15;;;;;;;1.6;0.8;;;;;;;;;;;;;
2021/02/21 02:56:44;;;;;;;1.3;1;;;;;;;;;;;;;
2021/02/21 02:59:09;;;;;;;4.6;1.3;;;;;;;;;;;;;
2021/02/21 03:01:36;;;;;;;0.9;0.8;;;;;;;;;;;;;
2021/02/21 03:04:01;;;;;;;7.5;1;;;;;;;;;;;;;
2021/02/21 03:06:28;;;;;;;1.9;1.1;;;;;;;;;;;;;
2021/02/21 03:08:54;;;;;;;2.7;1.4;;;;;;;;;;;;;
2021/02/21 03:11:21;;;;;;;1.3;1.2;;;;;;;;;;;;;
2021/02/21 03:13:51;;;;;;;1.4;1.1;;;;;;;;;;;;;
2021/02/21 03:16:20;;;;;;;3.9;1;;;;;;;;;;;;;
2021/02/21 03:18:48;;;;;;;4.5;1.2;;;;;;;;;;;;;
2021/02/21 03:21:18;;;;;;;0.9;0.9;;;;;;;;;;;;;
2021/02/21 03:23:47;;;;;;;4.1;1.1;;;;;;;;;;;;;
2021/02/21 03:26:12;;;;;;;1.8;1.4;;;;;;;;;;;;;
2021/02/21 03:28:38;;;;;;;1.6;0.6;;;;;;;;;;;;;
2021/02/21 03:31:03;;;;;;;2.4;1.4;;;;;;;;;;;;;
2021/02/21 03:33:31;;;;;;;2.4;1.1;;;;;;;;;;;;;
2021/02/21 03:36:01;;;;;;;3.1;1.3;;;;;;;;;;;;;
2021/02/21 03:38:31;;;;;;;0.9;0.8;;;;;;;;;;;;;
2021/02/21 03:40:56;;;;;;;1.6;1;;;;;;;;;;;;;
2021/02/21 03:43:24;;;;;;;0.8;0.6;;;;;;;;;;;;;
2021/02/21 03:45:55;;;;;;;0.5;0.5;;;;;;;;;;;;;
2021/02/21 03:48:20;;;;;;;0.9;0.7;;;;;;;;;;;;;
2021/02/21 03:50:49;;;;;;;1.4;0.7;;;;;;;;;;;;;
2021/02/21 03:53:19;;;;;;;0.9;0.7;;;;;;;;;;;;;
2021/02/21 03:55:50;;;;;;;1.7;1.2;;;;;;;;;;;;;
2021/02/21 03:58:21;;;;;;;0.8;0.7;;;;;;;;;;;;;
2021/02/21 04:02:40;;;;;;;4;1.2;;;;;;;2.27;73.18848;940.4705;;;;
2021/02/21 04:05:20;;;;;;;2.4;0.8;;;;;;;2.3;73.15918;940.4827;;;;
2021/02/21 04:07:46;;;;;;;4.3;1.1;;;;;;;2.34;73.03223;940.5207;;;;
2021/02/21 04:10:21;;;;;;;0.8;0.7;;;;;;;2.34;72.97461;940.4953;;;;
2021/02/21 04:12:59;;;;;;;1.7;0.9;;;;;;;2.4;72.55078;940.5567;;;;
2021/02/21 04:15:31;;;;;;;2.3;1;;;;;;;2.38;72.28809;940.4439;;;;
2021/02/21 04:18:07;;;;;;;1.3;0.9;;;;;;;2.27;72.70801;940.5028;;;;
2021/02/21 04:20:42;;;;;;;2.3;0.9;;;;;;;2.11;73.28516;940.545;;;;
2021/02/21 04:23:17;;;;;;;0.6;0.6;;;;;;;2.03;73.81738;940.5215;;;;
2021/02/21 04:26:01;;;;;;;1.4;1.2;;;;;;;1.93;74.34863;940.5114;;;;
2021/02/21 04:28:37;;;;;;;1.6;1.3;;;;;;;1.85;74.99414;940.5698;;;;
2021/02/21 04:31:09;;;;;;;1.9;1.3;;;;;;;1.82;75.3252;940.5902;;;;
2021/02/21 04:33:46;;;;;;;1;0.8;;;;;;;1.89;74.90039;940.5502;;;;
2021/02/21 04:36:22;;;;;;;3.1;1;;;;;;;1.87;74.79785;940.5503;;;;
2021/02/21 04:38:53;;;;;;;1;0.7;;;;;;;1.96;74.4668;940.5341;;;;
2021/02/21 04:41:28;;;;;;;4.1;1.4;;;;;;;2.17;73.60742;940.4917;;;;
2021/02/21 04:44:02;;;;;;;0.9;0.7;;;;;;;2.22;73.05664;940.5115;;;;
2021/02/21 04:46:32;;;;;;;0.9;0.7;;;;;;;2.18;72.90332;940.4424;;;;
2021/02/21 04:48:59;;;;;;;0.7;0.7;;;;;;;2.06;73.22949;940.4671;;;;
2021/02/21 04:51:28;;;;;;;4;0.7;;;;;;;2.03;73.44824;940.4422;;;;
2021/02/21 04:53:53;;;;;;;0.8;0.7;;;;;;;1.95;73.6582;940.465;;;;
2021/02/21 04:56:23;;;;;;;0.7;0.7;;;;;;;1.99;73.7334;940.4236;;;;
2021/02/21 04:58:51;;;;;;;1;0.6;;;;;;;2.06;73.43066;940.3908;;;;
2021/02/21 05:01:19;;;;;;;0.9;0.8;;;;;;;2.07;73.35547;940.4456;;;;
2021/02/21 05:03:49;;;;;;;7.4;0.7;;;;;;;1.97;73.83008;940.3326;;;;
2021/02/21 05:06:18;;;;;;;2.2;0.8;;;;;;;2.09;73.45898;940.3767;;;;
2021/02/21 05:08:48;;;;;;;1.2;1;;;;;;;2.24;72.81348;940.3617;;;;
2021/02/21 05:11:20;;;;;;;1;0.9;;;;;;;2.32;71.91895;940.188;;;;
2021/02/21 05:13:57;;;;;;;3.5;0.8;;;;;;;2.46;71.49512;940.2928;;;;
2021/02/21 05:16:26;;;;;;;1.2;1.1;;;;;;;2.55;71.06055;940.3019;;;;
2021/02/21 05:19:02;;;;;;;1;0.9;;;;;;;2.69;70.58008;940.3169;;;;
2021/02/21 05:21:28;;;;;;;1.9;1.1;;;;;;;2.67;70.86719;940.3347;;;;
2021/02/21 05:24:06;;;;;;;4.1;1.2;;;;;;;2.66;70.74414;940.2858;;;;
2021/02/21 05:26:38;;;;;;;2.1;1.1;;;;;;;2.45;71.42676;940.2859;;;;
2021/02/21 05:29:22;;;;;;;1.5;1.1;;;;;;;2.56;71.04102;940.3079;;;;
2021/02/21 05:31:58;;;;;;;2.8;1.2;;;;;;;2.55;71.25293;940.2776;;;;
2021/02/21 05:34:23;;;;;;;1.5;1;;;;;;;2.61;70.96094;940.2562;;;;
2021/02/21 05:36:54;;;;;;;1.5;1.2;;;;;;;2.48;70.89453;940.2512;;;;
2021/02/21 05:39:29;;;;;;;3;1.7;;;;;;;2.41;70.9375;940.2803;;;;
2021/02/21 05:42:01;;;;;;;3.9;2.3;;;;;;;2.33;71.27246;940.2388;;;;
2021/02/21 05:44:32;;;;;;;2.4;1.3;;;;;;;2.26;71.39355;940.2319;;;;
2021/02/21 05:47:03;;;;;;;2.1;1.4;;;;;;;2.27;71.19629;940.3142;;;;
2021/02/21 05:49:32;;;;;;;2.3;1;;;;;;;2.33;70.95898;940.2453;;;;
2021/02/21 05:52:08;;;;;;;3.2;1.3;;;;;;;2.31;71.33496;940.2994;;;;
2021/02/21 05:54:45;;;;;;;2.3;1.2;;;;;;;2.38;71.04492;940.2827;;;;
2021/02/21 05:57:18;;;;;;;2.9;0.9;;;;;;;2.25;71.57227;940.2509;;;;
2021/02/21 05:59:55;;;;;;;1.4;0.9;;;;;;;2.26;71.51758;940.2494;;;;
2021/02/21 06:02:32;;;;;;;0.8;0.8;;;;;;;2.33;71.20508;940.2538;;;;
2021/02/21 06:05:00;;;;;;;2.1;1.5;;;;;;;2.38;71.15723;940.2293;;;;
2021/02/21 06:07:35;;;;;;;1;0.9;;;;;;;2.42;71.16406;940.1606;;;;
2021/02/21 06:10:13;;;;;;;9.8;5.6;;;;;;;2.51;70.97656;940.2484;;;;
2021/02/21 06:12:48;;;;;;;6.1;3.6;;;;;;;2.44;71.12109;940.2461;;;;
2021/02/21 06:15:25;;;;;;;13;5.8;;;;;;;2.42;71.16309;940.2814;;;;
2021/02/21 06:18:03;;;;;;;5.6;2.3;;;;;;;2.39;71.23633;940.2681;;;;
2021/02/21 06:20:39;;;;;;;4.9;2.9;;;;;;;2.51;70.80859;940.2422;;;;
2021/02/21 06:23:06;;;;;;;6.1;2.6;;;;;;;2.34;71.27344;940.2929;;;;
2021/02/21 06:25:38;;;;;;;2.2;1.8;;;;;;;2.13;71.95508;940.2317;;;;
2021/02/21 06:28:07;;;;;;;1.9;1;;;;;;;1.95;72.5293;940.3295;;;;
2021/02/21 06:30:47;;;;;;;1.9;1.2;;;;;;;2.02;72.23828;940.3522;;;;
2021/02/21 06:33:16;;;;;;;3.1;1.3;;;;;;;2.08;73.63672;940.3771;;;;
2021/02/21 06:35:55;;;;;;;2.5;1.1;;;;;;;2.23;71.60156;940.3994;;;;
2021/02/21 06:38:21;;;;;;;1.1;1;;;;;;;2.24;71.3584;940.3922;;;;
2021/02/21 06:40:59;;;;;;;1;0.7;;;;;;;2.19;71.8418;940.4242;;;;
2021/02/21 06:43:36;;;;;;;2.4;1.1;;;;;;;2.06;72.4248;940.3517;;;;
2021/02/21 06:46:12;;;;;;;1.5;1;;;;;;;2.26;71.71973;940.3962;;;;
2021/02/21 06:48:49;;;;;;;1.2;0.8;;;;;;;2.36;71.53418;940.3918;;;;
2021/02/21 06:51:21;;;;;;;2.1;1.5;;;;;;;2.61;71.63281;940.4794;;;;
2021/02/21 06:53:51;;;;;;;5.8;1.9;;;;;;;2.75;70.53516;940.4358;;;;
2021/02/21 06:56:24;;;;;;;4.7;2.8;;;;;;;2.86;69.84668;940.5245;;;;
2021/02/21 06:58:58;;;;;;;6.7;2.2;;;;;;;2.97;69.48242;940.4387;;;;
2021/02/21 07:01:28;;;;;;;4.5;2.2;;;;;;;3.23;68.75098;940.4695;;;;
2021/02/21 07:03:58;;;;;;;4;1.8;;;;;;;3.57;67.42383;940.4698;;;;
2021/02/21 07:06:26;;;;;;;3.6;1.9;;;;;;;3.83;66.4209;940.4623;;;;
2021/02/21 07:08:57;;;;;;;2.7;1.7;;;;;;;4.2;64.53223;940.4293;;;;
2021/02/21 07:11:25;;;;;;;2.8;1.1;;;;;;;4.51;63.70215;940.4631;;;;
2021/02/21 07:13:50;;;;;;;3.4;1.3;;;;;;;4.71;62.54785;940.4562;;;;
2021/02/21 07:16:28;;;;;;;2.2;1.4;;;;;;;5;61.46387;940.43;;;;
2021/02/21 07:19:04;;;;;;;2;1.1;;;;;;;5.11;61.28711;940.437;;;;
2021/02/21 07:21:46;;;;;;;3.2;2;;;;;;;5.44;60.47754;940.4506;;;;
2021/02/21 07:24:28;;;;;;;4.2;1.8;;;;;;;5.78;58.30078;940.3995;;;;
2021/02/21 07:26:59;;;;;;;2.8;1;;;;;;;6.37;56.20996;940.4235;;;;
2021/02/21 07:29:28;;;;;;;0.7;0.7;;;;;;;6.92;53.67676;940.4037;;;;
2021/02/21 07:31:59;;;;;;;1.7;0.6;;;;;;;7.54;51.96484;940.3387;;;;
2021/02/21 07:34:29;;;;;;;2;0.5;;;;;;;8.37;46.75977;940.3461;;;;
2021/02/21 07:37:07;;;;;;;1.3;0.9;;;;;;;8.89;45.39355;940.3278;;;;
2021/02/21 07:39:47;;;;;;;1.1;0.8;;;;;;;9.05;46.99219;940.3986;;;;
2021/02/21 07:42:17;;;;;;;0.7;0.4;;;;;;;9.02;43.70215;940.383;;;;
2021/02/21 07:44:53;;;;;;;0.5;0.5;;;;;;;9.23;43.60938;940.3131;;;;
2021/02/21 07:47:20;;;;;;;1.2;1;;;;;;;9.66;43.42285;940.4139;;;;
2021/02/21 07:49:46;;;;;;;1.2;0.5;;;;;;;9.98;42.40723;940.448;;;;
2021/02/21 07:52:12;;;;;;;2;0.8;;;;;;;10.05;42.6416;940.3928;;;;
2021/02/21 07:54:38;;;;;;;1.7;0.6;;;;;;;10.24;40.72168;940.3603;;;;
2021/02/21 07:57:12;;;;;;;1.5;0.7;;;;;;;11.01;41.42188;940.2894;;;;
2021/02/21 07:59:40;;;;;;;2.3;1;;;;;;;11.35;41.67188;940.3429;;;;
2021/02/21 08:02:16;;;;;;;1.2;0.6;;;;;;;11.64;40.71582;940.3668;;;;
2021/02/21 08:04:49;;;;;;;1.1;0.7;;;;;;;12.07;39.55273;940.4525;;;;
2021/02/21 08:07:17;;;;;;;0.9;0.8;;;;;;;12.39;38.92871;940.4253;;;;
2021/02/21 08:09:54;;;;;;;0.7;0.6;;;;;;;13.26;36.8584;940.4171;;;;
2021/02/21 08:12:30;;;;;;;1.4;1;;;;;;;14.6;34.66699;940.4528;;;;
2021/02/21 08:15:04;;;;;;;1.3;0.9;;;;;;;15.53;33.1123;940.435;;;;
2021/02/21 08:17:39;;;;;;;0.5;0.5;;;;;;;15.8;31.71094;940.4715;;;;
2021/02/21 08:20:06;;;;;;;0.9;0.6;;;;;;;17.09;31.68848;940.3569;;;;
2021/02/21 08:22:35;;;;;;;3;1;;;;;;;17.53;28.90137;940.3541;;;;
2021/02/21 08:25:17;;;;;;;0.5;0.3;;;;;;;18.42;26.71582;940.3134;;;;
2021/02/21 08:27:51;;;;;;;0.5;0.4;;;;;;;18.87;25.43945;940.2902;;;;
2021/02/21 08:30:27;;;;;;;0.5;0.3;;;;;;;19.88;25.52148;940.3522;;;;
2021/02/21 08:33:04;;;;;;;0.6;0.5;;;;;;;22.08;23.15137;940.267;;;;
2021/02/21 08:35:37;;;;;;;0.9;0.5;;;;;;;22.85;21.62988;940.2427;;;;
2021/02/21 08:38:04;;;;;;;0.8;0.5;;;;;;;24.12;20.30176;940.2899;;;;
2021/02/21 08:40:42;;;;;;;7.6;0.7;;;;;;;24.33;19.98145;940.2491;;;;
2021/02/21 08:43:08;;;;;;;2.9;0.5;;;;;;;22.44;20.03711;940.2072;;;;
2021/02/21 08:45:40;;;;;;;1.3;0.4;;;;;;;21.54;20.58301;940.2263;;;;
2021/02/21 08:48:07;;;;;;;0.2;0.1;;;;;;;21.71;20.48535;940.1841;;;;
2021/02/21 08:50:48;;;;;;;1.3;0.6;;;;;;;20.76;21.45801;940.2072;;;;
2021/02/21 08:53:18;;;;;;;1.7;0.9;;;;;;;20.99;22.03027;940.1866;;;;
2021/02/21 08:55:58;;;;;;;4.4;1;;;;;;;21.5;21.17773;940.1774;;;;
2021/02/21 08:58:31;;;;;;;0.6;0.3;;;;;;;20.81;21.72949;940.099;;;;
2021/02/21 09:01:00;;;;;;;1.9;0.4;;;;;;;20.67;21.9209;940.0988;;;;
2021/02/21 09:03:29;;;;;;;0.3;0.3;;;;;;;19.83;22.35742;940.123;;;;
2021/02/21 09:05:56;;;;;;;0.6;0.4;;;;;;;18.6;24.20313;940.149;;;;
2021/02/21 09:08:36;;;;;;;0.8;0.6;;;;;;;18.78;24.89941;940.1414;;;;
2021/02/21 09:11:13;;;;;;;3.5;0.6;;;;;;;18.35;25.78125;940.105;;;;
2021/02/21 09:13:43;;;;;;;0.7;0.5;;;;;;;16.83;26.91992;940.1842;;;;
2021/02/21 09:16:27;;;;;;;0.2;0.2;;;;;;;16.71;26.93652;940.1708;;;;
2021/02/21 09:19:03;;;;;;;1.3;0.4;;;;;;;16.88;26.64551;940.0605;;;;
2021/02/21 09:21:47;;;;;;;1.1;1;;;;;;;18.42;24.9375;940.0943;;;;
2021/02/21 09:24:16;;;;;;;1;0.6;;;;;;;18.65;24.8916;940.0884;;;;
2021/02/21 09:26:56;;;;;;;4.8;2;;;;;;;18.75;24.4668;940.0356;;;;
2021/02/21 09:29:29;;;;;;;1.6;0.7;;;;;;;19.14;24.10449;940.0017;;;;
2021/02/21 09:32:06;;;;;;;0.4;0.4;;;;;;;19.1;24.11426;940.0251;;;;
2021/02/21 09:34:33;;;;;;;1.5;0.8;;;;;;;19.02;24.28418;939.9937;;;;
2021/02/21 09:37:05;;;;;;;0.4;0.2;;;;;;;19.04;23.72656;939.9861;;;;
2021/02/21 09:39:38;;;;;;;1.1;0.4;;;;;;;19.07;22.93652;940.0363;;;;
2021/02/21 09:42:17;;;;;;;0.8;0.6;;;;;;;18.44;23.81055;939.9536;;;;
2021/02/21 09:44:53;;;;;;;0.2;0.1;;;;;;;18.62;23.99512;939.9554;;;;
2021/02/21 09:47:28;;;;;;;1.3;0.6;;;;;;;18.98;23.83984;939.8876;;;;
2021/02/21 09:50:08;;;;;;;1.1;0.7;;;;;;;18.59;23.66699;939.8928;;;;
2021/02/21 09:52:40;;;;;;;1;0.4;;;;;;;18.42;23.27441;939.8056;;;;
2021/02/21 09:55:17;;;;;;;1.2;0.4;;;;;;;18.48;22.90527;939.8232;;;;
2021/02/21 09:57:50;;;;;;;0.3;0.3;;;;;;;18.68;24.8125;939.7377;;;;
2021/02/21 10:00:25;;;;;;;0.2;0.2;;;;;;;18.98;23.32715;939.69;;;;
2021/02/21 10:02:55;;;;;;;1.6;0.3;;;;;;;19.11;23.67285;939.6995;;;;
2021/02/21 10:05:24;;;;;;;0.7;0.2;;;;;;;19.34;22.87988;939.6475;;;;
2021/02/21 10:07:58;;;;;;;1.9;0.8;;;;;;;19.34;22.4375;939.6434;;;;
2021/02/21 10:10:41;;;;;;;0.7;0.4;;;;;;;19.53;22.02734;939.5375;;;;
2021/02/21 10:13:14;;;;;;;2.9;0.2;;;;;;;18.78;23.00293;939.5695;;;;
2021/02/21 10:15:42;;;;;;;3.7;0.3;;;;;;;19;23.57324;939.5733;;;;
2021/02/21 10:18:11;;;;;;;0.8;0.4;;;;;;;19.5;22.62109;939.4285;;;;
2021/02/21 10:20:49;;;;;;;0.7;0.4;;;;;;;19.26;22.62012;939.3497;;;;
2021/02/21 10:23:14;;;;;;;1;0.3;;;;;;;19.13;23.06738;939.3466;;;;
2021/02/21 10:25:44;;;;;;;0.9;0.6;;;;;;;19.56;23.20703;939.4031;;;;
2021/02/21 10:28:12;;;;;;;0.1;0.1;;;;;;;19.33;21.5166;939.3811;;;;
2021/02/21 10:30:39;;;;;;;0.3;0.1;;;;;;;19.1;22.22754;939.2874;;;;
2021/02/21 10:33:07;;;;;;;0.7;0.4;;;;;;;19.13;22.75391;939.3278;;;;
2021/02/21 10:35:51;;;;;;;0.2;0.2;;;;;;;19.36;22.12402;939.2536;;;;
2021/02/21 10:38:21;;;;;;;1.3;0.3;;;;;;;19.37;21.33301;939.1871;;;;
2021/02/21 10:41:02;;;;;;;0.1;0.1;;;;;;;19.51;20.91992;939.1431;;;;
2021/02/21 10:43:39;;;;;;;0.4;0.1;;;;;;;19.79;21.14258;939.1328;;;;
2021/02/21 10:46:08;;;;;;;0.1;0.1;;;;;;;20.56;21.12109;939.1021;;;;
2021/02/21 10:48:48;;;;;;;0.2;0.2;;;;;;;20.62;20.58691;939.0623;;;;
2021/02/21 10:51:13;;;;;;;0.2;0.2;;;;;;;20.97;20.97754;939.0002;;;;
2021/02/21 10:53:45;;;;;;;1.4;0.7;;;;;;;21.35;20.15234;938.9793;;;;
2021/02/21 10:56:10;;;;;;;2.6;0.4;;;;;;;21.58;19.0625;938.9512;;;;
2021/02/21 10:58:42;;;;;;;0.3;0.2;;;;;;;22.06;18.97754;938.9277;;;;
2021/02/21 11:01:12;;;;;;;0.7;0.3;;;;;;;21.82;18.05371;938.8383;;;;
2021/02/21 11:03:44;;;;;;;0.7;0.4;;;;;;;21.35;18.80664;938.8536;;;;
2021/02/21 11:06:09;;;;;;;0.2;0.2;;;;;;;21.79;18.9541;938.7435;;;;
2021/02/21 11:08:39;;;;;;;0.1;0.1;;;;;;;22.04;17.86328;938.808;;;;
2021/02/21 11:11:12;;;;;;;0.2;0.2;;;;;;;22.58;18.06055;938.7325;;;;
2021/02/21 11:13:42;;;;;;;0.2;0.2;;;;;;;22.43;19.58008;938.7589;;;;
2021/02/21 11:16:30;;;;;;;1.2;0.3;;;;;;;22.44;17.75;938.7186;;;;
2021/02/21 11:19:08;;;;;;;0.4;0.3;;;;;;;22.25;18.36426;938.6479;;;;
2021/02/21 11:21:34;;;;;;;1.1;0.3;;;;;;;22.65;19.34277;938.6303;;;;
2021/02/21 11:24:09;;;;;;;0.2;0.1;;;;;;;23.09;17.74023;938.5864;;;;
2021/02/21 11:26:35;;;;;;;0.4;0.1;;;;;;;22.49;17.51758;938.5846;;;;
2021/02/21 11:29:07;;;;;;;0.9;0.6;;;;;;;23.61;17.4082;938.5251;;;;
2021/02/21 11:31:32;;;;;;;2.5;0.3;;;;;;;24.33;16.97754;938.4932;;;;
2021/02/21 11:34:05;;;;;;;0.3;0.2;;;;;;;24.92;16.03223;938.4362;;;;
2021/02/21 11:36:36;;;;;;;0.2;0.2;;;;;;;25.16;15.08496;938.4171;;;;
2021/02/21 11:39:02;;;;;;;0.2;0.1;;;;;;;26.15;15.18945;938.3856;;;;
2021/02/21 11:41:28;;;;;;;0.5;0.2;;;;;;;27.12;14.45117;938.3722;;;;
2021/02/21 11:44:00;;;;;;;0.3;0.2;;;;;;;28.68;13.7998;938.2816;;;;
2021/02/21 11:46:26;;;;;;;0.3;0.3;;;;;;;28.32;12.48145;938.197;;;;
2021/02/21 11:49:01;;;;;;;0.4;0.2;;;;;;;28.93;12.56934;938.1351;;;;
2021/02/21 11:51:32;;;;;;;0.2;0.2;;;;;;;29.97;11.84668;938.12;;;;
2021/02/21 11:54:03;;;;;;;0.8;0.5;;;;;;;30.81;11.77344;938.0986;;;;
2021/02/21 11:56:37;;;;;;;0.2;0.2;;;;;;;31.45;10.52051;938.01;;;;
2021/02/21 11:59:09;;;;;;;1.2;0.1;;;;;;;32.08;10.94336;937.9531;;;;
2021/02/21 12:01:37;;;;;;;0.2;0.2;;;;;;;31.06;10.71484;937.9655;;;;
2021/02/21 12:04:09;;;;;;;0.4;0.2;;;;;;;30.86;10.75879;937.9512;;;;
2021/02/21 12:06:40;;;;;;;0.1;0.1;;;;;;;29.56;11.12109;937.8996;;;;
2021/02/21 12:09:05;;;;;;;0.3;0.2;;;;;;;30.38;11.14063;937.8674;;;;
2021/02/21 12:11:36;;;;;;;0.4;0.3;;;;;;;29.55;10.50098;937.8727;;;;
2021/02/21 12:14:02;;;;;;;0;0;;;;;;;28.68;11.4209;937.7965;;;;
2021/02/21 12:16:29;;;;;;;0.2;0.1;;;;;;;29.64;11.8623;937.8177;;;;
2021/02/21 12:18:59;;;;;;;0.8;0.1;;;;;;;31.17;10.88574;937.7961;;;;
2021/02/21 12:21:34;;;;;;;0.1;0.1;;;;;;;32.7;9.673828;937.7156;;;;
2021/02/21 12:23:59;;;;;;;0;0;;;;;;;33.26;9.457031;937.6995;;;;
2021/02/21 12:26:24;;;;;;;0.4;0.2;;;;;;;33.1;8.865234;937.6713;;;;
2021/02/21 12:28:55;;;;;;;0.1;0.1;;;;;;;34.39;8.698242;937.6516;;;;
2021/02/21 12:31:28;;;;;;;0.2;0.1;;;;;;;35.18;8.399414;937.5887;;;;
2021/02/21 12:33:59;;;;;;;0;0;;;;;;;35.71;7.755859;937.5901;;;;
2021/02/21 12:36:31;;;;;;;0.4;0.2;;;;;;;36.03;7.592773;937.5379;;;;
2021/02/21 12:39:03;;;;;;;0.2;0.1;;;;;;;36.56;7.722656;937.475;;;;
2021/02/21 12:41:28;;;;;;;0.4;0.2;;;;;;;36.63;7.59082;937.5137;;;;
2021/02/21 12:43:59;;;;;;;0.6;0.3;;;;;;;35.84;7.492188;937.4718;;;;
2021/02/21 12:46:24;;;;;;;0.1;0.1;;;;;;;36.89;7.316406;937.3958;;;;
2021/02/21 12:48:56;;;;;;;0.4;0.2;;;;;;;37.28;7.188477;937.3506;;;;
2021/02/21 12:51:28;;;;;;;0.1;0;;;;;;;37.12;6.956055;937.3875;;;;
2021/02/21 12:53:59;;;;;;;0.2;0.2;;;;;;;37.42;6.81543;937.3158;;;;
2021/02/21 12:56:31;;;;;;;0.1;0.1;;;;;;;37.91;7.259766;937.2698;;;;
2021/02/21 12:59:04;;;;;;;2.7;0.2;;;;;;;38.74;7.126953;937.2251;;;;
2021/02/21 13:01:29;;;;;;;0.3;0.2;;;;;;;38.82;7.359375;937.2477;;;;
2021/02/21 13:04:00;;;;;;;0.3;0.2;;;;;;;38.44;7.425781;937.1707;;;;
2021/02/21 13:06:25;;;;;;;0.3;0.2;;;;;;;38.99;7.166992;937.2211;;;;
2021/02/21 13:08:56;;;;;;;0.2;0.1;;;;;;;39.17;7.145508;937.2059;;;;
2021/02/21 13:11:23;;;;;;;1.8;0.1;;;;;;;39.18;7.047852;937.1842;;;;
2021/02/21 13:13:55;;;;;;;0.1;0.1;;;;;;;39.68;6.714844;937.2247;;;;
2021/02/21 13:16:40;;;;;;;0.1;0.1;;;;;;;38.72;7.990234;937.1755;;;;
2021/02/21 13:19:14;;;;;;;0;0;;;;;;;38.65;7.526367;937.1891;;;;
2021/02/21 13:21:44;;;;;;;0.2;0.1;;;;;;;38.35;8.141602;937.1667;;;;
2021/02/21 13:24:11;;;;;;;0.1;0.1;;;;;;;37.9;8.583008;937.1074;;;;
2021/02/21 13:26:43;;;;;;;2.4;0.2;;;;;;;37.66;9.293945;937.1116;;;;
2021/02/21 13:29:05;;;;;;;0.2;0.2;;;;;;;37.94;8.644531;937.0694;;;;
2021/02/21 13:31:31;;;;;;;0;0;;;;;;;37.36;8.912109;937.074;;;;
2021/02/21 13:34:03;;;;;;;0.7;0.3;;;;;;;37.86;8.545898;937.1047;;;;
2021/02/21 13:36:28;;;;;;;0.4;0.1;;;;;;;38.12;8.501953;937.1317;;;;
2021/02/21 13:38:58;;;;;;;0.6;0.2;;;;;;;38.27;7.958008;937.0735;;;;
2021/02/21 13:41:23;;;;;;;0.1;0.1;;;;;;;37.84;8.873047;937.0798;;;;
2021/02/21 13:43:55;;;;;;;1.6;0.1;;;;;;;38.47;8.69043;937.0708;;;;
2021/02/21 13:46:27;;;;;;;0.2;0.2;;;;;;;37.91;8.947266;937.012;;;;
2021/02/21 13:48:53;;;;;;;1;0.2;;;;;;;38.43;8.787109;937.0547;;;;
2021/02/21 13:51:18;;;;;;;0.1;0.1;;;;;;;39.12;8.191406;937.0906;;;;
2021/02/21 13:53:47;;;;;;;0.1;0.1;;;;;;;39.14;8.629883;937.0901;;;;
2021/02/21 13:56:13;;;;;;;1.4;0.3;;;;;;;38.84;8.831055;937.0868;;;;
2021/02/21 13:58:43;;;;;;;0.1;0.1;;;;;;;38.78;8.854492;937.0294;;;;
2021/02/21 14:01:09;;;;;;;0.1;0.1;;;;;;;37.7;9.670898;937.0162;;;;
2021/02/21 14:03:40;;;;;;;0.6;0.3;;;;;;;34.83;11.35938;936.999;;;;
2021/02/21 14:06:13;;;;;;;0.2;0.2;;;;;;;35.57;11.00293;936.9738;;;;
2021/02/21 14:08:43;;;;;;;0.6;0.3;;;;;;;36.74;10.49902;936.9428;;;;
2021/02/21 14:11:08;;;;;;;0.2;0.2;;;;;;;36.96;10.16406;936.9434;;;;
2021/02/21 14:13:43;;;;;;;0.3;0.2;;;;;;;37;10.09277;936.9097;;;;
2021/02/21 14:21:21;;;;;;;1.5;0.3;;;;;;;37.15;10.39844;936.9366;;;;
2021/02/21 14:23:49;;;;;;;2.7;0.6;;;;;;;36.78;10.17285;936.9174;;;;
2021/02/21 14:26:17;;;;;;;0.5;0.4;;;;;;;36.25;10.66895;936.9139;;;;
2021/02/21 14:28:48;;;;;;;0.1;0.1;;;;;;;36.06;10.74902;936.9069;;;;
2021/02/21 14:31:13;;;;;;;0.2;0.1;;;;;;;36.42;10.83008;936.9389;;;;
2021/02/21 14:33:43;;;;;;;0.2;0.2;;;;;;;36.43;11;936.9384;;;;
2021/02/21 14:36:18;;;;;;;0.7;0.4;;;;;;;36.76;10.92285;936.9081;;;;
2021/02/21 14:38:46;;;;;;;0.4;0.3;;;;;;;36.88;10.71973;936.9431;;;;
2021/02/21 14:41:19;;;;;;;0.2;0.2;;;;;;;36.84;10.88867;936.8475;;;;
2021/02/21 14:43:58;;;;;;;0.2;0.2;;;;;;;36.55;10.78418;936.863;;;;
2021/02/21 14:46:28;;;;;;;0.1;0.1;;;;;;;36.12;11.17383;936.832;;;;
2021/02/21 14:49:01;;;;;;;0.2;0.2;;;;;;;35.87;11.09473;936.8505;;;;
2021/02/21 14:51:43;;;;;;;0.3;0.2;;;;;;;35.89;11.10742;936.8606;;;;
2021/02/21 14:54:09;;;;;;;0.1;0.1;;;;;;;35.38;11.15527;936.8817;;;;
2021/02/21 14:56:37;;;;;;;0.4;0.3;;;;;;;34.06;12.12207;936.8491;;;;
2021/02/21 14:59:09;;;;;;;0.4;0.1;;;;;;;34.17;12.16211;936.818;;;;
2021/02/21 15:01:47;;;;;;;0.7;0.2;;;;;;;34.59;11.88379;936.7401;;;;
2021/02/21 15:04:17;;;;;;;0.1;0.1;;;;;;;34.29;12.38184;936.8326;;;;
2021/02/21 15:06:43;;;;;;;0.1;0.1;;;;;;;33.92;12.07031;936.7963;;;;
2021/02/21 15:09:08;;;;;;;0.3;0.2;;;;;;;33.94;11.93848;936.7534;;;;
2021/02/21 15:11:36;;;;;;;0.6;0.4;;;;;;;34.14;12.28125;936.8206;;;;
2021/02/21 15:14:05;;;;;;;1;0.4;;;;;;;34.36;12.57617;936.8047;;;;
2021/02/21 15:16:33;;;;;;;2.2;0.3;;;;;;;34.28;12.44141;936.8137;;;;
2021/02/21 15:19:09;;;;;;;0.4;0.3;;;;;;;34.11;12.4248;936.7775;;;;
2021/02/21 15:21:46;;;;;;;0.5;0.1;;;;;;;33.84;12.52539;936.7466;;;;
2021/02/21 15:24:29;;;;;;;0.3;0.2;;;;;;;33.72;12.82324;936.748;;;;
2021/02/21 15:27:03;;;;;;;0.6;0.2;;;;;;;33.16;13.5166;936.7297;;;;
2021/02/21 15:29:36;;;;;;;0.3;0.2;;;;;;;32.98;13.95508;936.7505;;;;
2021/02/21 15:32:08;;;;;;;0.8;0.3;;;;;;;32.71;13.7793;936.7372;;;;
2021/02/21 15:34:33;;;;;;;0.7;0.3;;;;;;;32.62;14.10059;936.7178;;;;
2021/02/21 15:37:00;;;;;;;0.2;0.2;;;;;;;32.1;14.28809;936.7097;;;;
2021/02/21 15:39:32;;;;;;;0.6;0.5;;;;;;;31.58;14.4873;936.7589;;;;
2021/02/21 15:41:57;;;;;;;0;0;;;;;;;30.2;15.91113;936.7324;;;;
2021/02/21 15:44:26;;;;;;;0.3;0.3;;;;;;;28.72;16.82324;936.7039;;;;
2021/02/21 15:46:51;;;;;;;1.4;0.7;;;;;;;27.89;17.89648;936.7269;;;;
2021/02/21 15:49:20;;;;;;;3.2;0.4;;;;;;;26.72;19.10547;936.7514;;;;
2021/02/21 15:51:45;;;;;;;4.8;0.5;;;;;;;25.51;19.96387;936.7605;;;;
2021/02/21 15:54:09;;;;;;;1.5;0.8;;;;;;;24.33;21.7373;936.7456;;;;
2021/02/21 15:56:38;;;;;;;0.9;0.3;;;;;;;22.71;23.37207;936.8094;;;;
2021/02/21 15:59:03;;;;;;;0.2;0.1;;;;;;;22.01;24.21484;936.8778;;;;
2021/02/21 16:01:30;;;;;;;1.1;0.9;;;;;;;21.05;26.14941;936.8939;;;;
2021/02/21 16:03:55;;;;;;;0.8;0.6;;;;;;;20.44;26.9082;936.9012;;;;
2021/02/21 16:06:21;;;;;;;8.9;0.8;;;;;;;19.84;28.11914;936.8781;;;;
2021/02/21 16:08:47;;;;;;;1.7;1;;;;;;;19.33;28.82129;936.8722;;;;
2021/02/21 16:11:13;;;;;;;0.6;0.4;;;;;;;18.98;29.04297;936.8597;;;;